Hovedside
METAR-TAF:

METAR-TAF

Lufthavner :

Bardufoss lufthavn

Bardufoss, Norge

breddegrad: 69-04N, lengdegrad: 018-32E, høyde over havet: 7 m

Gjeldene værobservasjon

Denne rapporten ble laget for 12 minutter siden, klokken 03:50 UTC
Flau vind
Temperatur -25°C
Luftfuktighet 83%
Trykk 1009 hPa
Sikt 10 km eller mer

METAR: ENDU 200350Z AUTO 00000KT 9999 NCD M25/M27 Q1009 RMK WIND 1100FT 19006KT WIND 2200FT 21010KT

Tid: 05:02 (04:02 UTC)

Varsel

Varsel gyldig fra 20. klokken 00 UTC til 20. klokken 24 UTC
Vind 5 kt fra skiftende retning
Sikt 10 km eller mer
Få skyer i en høyde av 2500 ft
Spredte skyer i en høyde av 4000 ft
Midlertidig
fra 20. klokken 11 UTC til 20. klokken 24 UTC
Sikt: 1000 m
i en høyde av 700 ft
snøbyger

TAF: ENDU 2000/2024 VRB05KT 9999 FEW025 SCT040 TEMPO 2011/2024 1000 SHSN VV007

Værobservasjoner og værvarsel for over 4000 flyplasser (METAR- og TAF-rapporter).

Tilgjengelige stasjoner er representert av de røde og gule prikkene på kartet.

Hold musepekeren over prikken for å se navnet på stasjonen.

Klikk så for å se værobservasjoner og -varsler.

For å forandre kartet kan du klikke på den grønne knappen med svart kryss for å zoome inn, på den grønne knappen med strek for å zoome ut, eller på de grønne pilene for å se tilstøtende kart.


METAR-TAF: